sensor_id;sensor_type;location;lat;lon;timestamp;P1;durP1;ratioP1;P2;durP2;ratioP2
67776;SDS011;54576;52.020;5.536;2023-06-10T00:01:51;14.13;;;5.30;;
67776;SDS011;54576;52.020;5.536;2023-06-10T00:04:20;9.07;;;5.22;;
67776;SDS011;54576;52.020;5.536;2023-06-10T00:06:46;9.38;;;5.55;;
67776;SDS011;54576;52.020;5.536;2023-06-10T00:09:14;9.00;;;5.13;;
67776;SDS011;54576;52.020;5.536;2023-06-10T00:11:40;17.40;;;5.40;;
67776;SDS011;54576;52.020;5.536;2023-06-10T00:14:07;7.72;;;4.93;;
67776;SDS011;54576;52.020;5.536;2023-06-10T00:16:33;16.30;;;5.35;;
67776;SDS011;54576;52.020;5.536;2023-06-10T00:19:02;7.60;;;5.18;;
67776;SDS011;54576;52.020;5.536;2023-06-10T00:21:33;9.98;;;5.35;;
67776;SDS011;54576;52.020;5.536;2023-06-10T00:24:09;12.50;;;5.35;;
67776;SDS011;54576;52.020;5.536;2023-06-10T00:26:36;7.18;;;5.13;;
67776;SDS011;54576;52.020;5.536;2023-06-10T00:29:03;11.38;;;4.75;;
67776;SDS011;54576;52.020;5.536;2023-06-10T00:31:28;9.75;;;5.28;;
67776;SDS011;54576;52.020;5.536;2023-06-10T00:33:55;6.20;;;4.93;;
67776;SDS011;54576;52.020;5.536;2023-06-10T00:36:20;6.68;;;4.55;;
67776;SDS011;54576;52.020;5.536;2023-06-10T00:38:46;8.90;;;5.82;;
67776;SDS011;54576;52.020;5.536;2023-06-10T00:41:12;6.95;;;4.55;;
67776;SDS011;54576;52.020;5.536;2023-06-10T00:43:38;7.82;;;5.13;;
67776;SDS011;54576;52.020;5.536;2023-06-10T00:46:03;15.13;;;4.85;;
67776;SDS011;54576;52.020;5.536;2023-06-10T00:48:30;13.57;;;5.00;;
67776;SDS011;54576;52.020;5.536;2023-06-10T00:50:56;5.30;;;3.90;;
67776;SDS011;54576;52.020;5.536;2023-06-10T00:53:22;9.32;;;4.50;;
67776;SDS011;54576;52.020;5.536;2023-06-10T00:55:48;9.95;;;5.10;;
67776;SDS011;54576;52.020;5.536;2023-06-10T00:58:13;8.60;;;5.22;;
67776;SDS011;54576;52.020;5.536;2023-06-10T01:00:40;10.77;;;4.93;;
67776;SDS011;54576;52.020;5.536;2023-06-10T01:03:06;7.30;;;4.43;;
67776;SDS011;54576;52.020;5.536;2023-06-10T01:05:33;7.10;;;4.90;;
67776;SDS011;54576;52.020;5.536;2023-06-10T01:13:11;17.92;;;4.60;;
67776;SDS011;54576;52.020;5.536;2023-06-10T01:15:38;6.43;;;4.65;;
67776;SDS011;54576;52.020;5.536;2023-06-10T01:18:05;9.30;;;4.93;;
67776;SDS011;54576;52.020;5.536;2023-06-10T01:20:36;8.57;;;4.70;;
67776;SDS011;54576;52.020;5.536;2023-06-10T01:23:05;6.50;;;4.63;;
67776;SDS011;54576;52.020;5.536;2023-06-10T01:25:31;6.00;;;4.80;;
67776;SDS011;54576;52.020;5.536;2023-06-10T01:33:41;6.03;;;4.40;;
67776;SDS011;54576;52.020;5.536;2023-06-10T01:36:10;12.50;;;5.15;;
67776;SDS011;54576;52.020;5.536;2023-06-10T01:38:39;11.60;;;4.90;;
67776;SDS011;54576;52.020;5.536;2023-06-10T01:41:07;8.00;;;4.15;;
67776;SDS011;54576;52.020;5.536;2023-06-10T01:43:34;8.70;;;4.68;;
67776;SDS011;54576;52.020;5.536;2023-06-10T01:46:02;10.82;;;4.88;;
67776;SDS011;54576;52.020;5.536;2023-06-10T01:48:27;8.70;;;4.40;;
67776;SDS011;54576;52.020;5.536;2023-06-10T01:50:54;7.88;;;4.40;;
67776;SDS011;54576;52.020;5.536;2023-06-10T01:53:21;6.97;;;4.63;;
67776;SDS011;54576;52.020;5.536;2023-06-10T01:55:47;9.07;;;4.35;;
67776;SDS011;54576;52.020;5.536;2023-06-10T01:58:13;12.77;;;4.57;;
67776;SDS011;54576;52.020;5.536;2023-06-10T02:00:38;19.77;;;4.22;;
67776;SDS011;54576;52.020;5.536;2023-06-10T02:03:04;12.55;;;4.30;;
67776;SDS011;54576;52.020;5.536;2023-06-10T02:05:30;7.10;;;4.15;;
67776;SDS011;54576;52.020;5.536;2023-06-10T02:07:55;7.72;;;4.70;;
67776;SDS011;54576;52.020;5.536;2023-06-10T02:10:21;8.30;;;4.40;;
67776;SDS011;54576;52.020;5.536;2023-06-10T02:12:47;12.25;;;4.22;;
67776;SDS011;54576;52.020;5.536;2023-06-10T02:15:12;11.63;;;4.85;;
67776;SDS011;54576;52.020;5.536;2023-06-10T02:17:38;8.07;;;4.85;;
67776;SDS011;54576;52.020;5.536;2023-06-10T02:20:04;12.68;;;4.63;;
67776;SDS011;54576;52.020;5.536;2023-06-10T02:24:58;11.32;;;4.40;;
67776;SDS011;54576;52.020;5.536;2023-06-10T02:27:24;10.60;;;4.93;;
67776;SDS011;54576;52.020;5.536;2023-06-10T02:29:50;6.72;;;4.38;;
67776;SDS011;54576;52.020;5.536;2023-06-10T02:32:16;8.73;;;4.30;;
67776;SDS011;54576;52.020;5.536;2023-06-10T02:34:42;9.70;;;5.10;;
67776;SDS011;54576;52.020;5.536;2023-06-10T02:37:10;9.43;;;4.55;;
67776;SDS011;54576;52.020;5.536;2023-06-10T02:39:36;7.95;;;5.05;;
67776;SDS011;54576;52.020;5.536;2023-06-10T02:42:02;5.57;;;4.60;;
67776;SDS011;54576;52.020;5.536;2023-06-10T02:44:27;7.60;;;4.80;;
67776;SDS011;54576;52.020;5.536;2023-06-10T02:46:53;8.30;;;4.60;;
67776;SDS011;54576;52.020;5.536;2023-06-10T02:49:18;14.50;;;5.05;;
67776;SDS011;54576;52.020;5.536;2023-06-10T02:51:44;7.28;;;4.13;;
67776;SDS011;54576;52.020;5.536;2023-06-10T02:54:09;7.93;;;5.07;;
67776;SDS011;54576;52.020;5.536;2023-06-10T02:56:35;10.68;;;4.80;;
67776;SDS011;54576;52.020;5.536;2023-06-10T02:59:01;11.50;;;4.80;;
67776;SDS011;54576;52.020;5.536;2023-06-10T03:01:27;17.50;;;5.07;;
67776;SDS011;54576;52.020;5.536;2023-06-10T03:03:53;9.48;;;4.10;;
67776;SDS011;54576;52.020;5.536;2023-06-10T03:06:21;16.75;;;5.32;;
67776;SDS011;54576;52.020;5.536;2023-06-10T03:08:49;8.27;;;4.50;;
67776;SDS011;54576;52.020;5.536;2023-06-10T03:11:15;16.80;;;4.85;;
67776;SDS011;54576;52.020;5.536;2023-06-10T03:13:40;7.90;;;4.55;;
67776;SDS011;54576;52.020;5.536;2023-06-10T03:16:06;9.60;;;4.57;;
67776;SDS011;54576;52.020;5.536;2023-06-10T03:18:32;12.90;;;4.88;;
67776;SDS011;54576;52.020;5.536;2023-06-10T03:20:58;9.15;;;4.70;;
67776;SDS011;54576;52.020;5.536;2023-06-10T03:23:24;16.42;;;4.88;;
67776;SDS011;54576;52.020;5.536;2023-06-10T03:25:49;8.25;;;4.90;;
67776;SDS011;54576;52.020;5.536;2023-06-10T03:28:15;10.10;;;4.40;;
67776;SDS011;54576;52.020;5.536;2023-06-10T03:30:40;18.90;;;5.20;;
67776;SDS011;54576;52.020;5.536;2023-06-10T03:33:06;9.02;;;4.47;;
67776;SDS011;54576;52.020;5.536;2023-06-10T03:35:31;10.57;;;5.10;;
67776;SDS011;54576;52.020;5.536;2023-06-10T03:37:57;8.52;;;4.82;;
67776;SDS011;54576;52.020;5.536;2023-06-10T03:40:23;5.85;;;4.80;;
67776;SDS011;54576;52.020;5.536;2023-06-10T03:42:52;12.57;;;5.20;;
67776;SDS011;54576;52.020;5.536;2023-06-10T03:45:18;6.32;;;4.30;;
67776;SDS011;54576;52.020;5.536;2023-06-10T03:47:43;6.93;;;4.55;;
67776;SDS011;54576;52.020;5.536;2023-06-10T03:50:10;12.77;;;4.63;;
67776;SDS011;54576;52.020;5.536;2023-06-10T03:52:35;12.00;;;4.80;;
67776;SDS011;54576;52.020;5.536;2023-06-10T03:55:02;8.95;;;4.90;;
67776;SDS011;54576;52.020;5.536;2023-06-10T03:57:28;12.90;;;5.30;;
67776;SDS011;54576;52.020;5.536;2023-06-10T03:59:54;11.35;;;5.25;;
67776;SDS011;54576;52.020;5.536;2023-06-10T04:02:21;7.53;;;5.00;;
67776;SDS011;54576;52.020;5.536;2023-06-10T04:04:47;15.02;;;4.80;;
67776;SDS011;54576;52.020;5.536;2023-06-10T04:07:13;10.50;;;4.40;;
67776;SDS011;54576;52.020;5.536;2023-06-10T04:09:45;8.32;;;4.28;;
67776;SDS011;54576;52.020;5.536;2023-06-10T04:12:11;10.30;;;5.55;;
67776;SDS011;54576;52.020;5.536;2023-06-10T04:14:37;9.30;;;4.78;;
67776;SDS011;54576;52.020;5.536;2023-06-10T04:17:03;7.63;;;4.90;;
67776;SDS011;54576;52.020;5.536;2023-06-10T04:19:31;10.55;;;5.05;;
67776;SDS011;54576;52.020;5.536;2023-06-10T04:21:57;9.75;;;5.05;;
67776;SDS011;54576;52.020;5.536;2023-06-10T04:24:23;6.80;;;3.90;;
67776;SDS011;54576;52.020;5.536;2023-06-10T04:26:48;8.05;;;4.97;;
67776;SDS011;54576;52.020;5.536;2023-06-10T04:29:14;6.35;;;4.35;;
67776;SDS011;54576;52.020;5.536;2023-06-10T04:31:40;9.63;;;4.95;;
67776;SDS011;54576;52.020;5.536;2023-06-10T04:34:06;14.30;;;4.68;;
67776;SDS011;54576;52.020;5.536;2023-06-10T04:36:32;13.05;;;5.35;;
67776;SDS011;54576;52.020;5.536;2023-06-10T04:38:58;15.07;;;5.55;;
67776;SDS011;54576;52.020;5.536;2023-06-10T04:41:23;12.18;;;4.57;;
67776;SDS011;54576;52.020;5.536;2023-06-10T04:43:50;12.98;;;5.25;;
67776;SDS011;54576;52.020;5.536;2023-06-10T04:46:16;5.82;;;4.68;;
67776;SDS011;54576;52.020;5.536;2023-06-10T04:48:42;22.25;;;5.30;;
67776;SDS011;54576;52.020;5.536;2023-06-10T04:51:07;11.32;;;5.03;;
67776;SDS011;54576;52.020;5.536;2023-06-10T04:53:33;14.20;;;5.05;;
67776;SDS011;54576;52.020;5.536;2023-06-10T04:55:59;17.42;;;4.97;;
67776;SDS011;54576;52.020;5.536;2023-06-10T04:58:24;10.85;;;5.00;;
67776;SDS011;54576;52.020;5.536;2023-06-10T05:00:53;10.95;;;4.78;;
67776;SDS011;54576;52.020;5.536;2023-06-10T05:03:18;9.75;;;4.97;;
67776;SDS011;54576;52.020;5.536;2023-06-10T05:05:44;8.95;;;5.20;;
67776;SDS011;54576;52.020;5.536;2023-06-10T05:08:09;12.60;;;4.95;;
67776;SDS011;54576;52.020;5.536;2023-06-10T05:10:35;15.65;;;4.88;;
67776;SDS011;54576;52.020;5.536;2023-06-10T05:13:00;12.48;;;4.68;;
67776;SDS011;54576;52.020;5.536;2023-06-10T05:15:26;12.48;;;4.65;;
67776;SDS011;54576;52.020;5.536;2023-06-10T05:17:51;9.90;;;4.82;;
67776;SDS011;54576;52.020;5.536;2023-06-10T05:20:17;8.68;;;4.72;;
67776;SDS011;54576;52.020;5.536;2023-06-10T05:22:43;8.43;;;4.97;;
67776;SDS011;54576;52.020;5.536;2023-06-10T05:25:09;14.30;;;4.50;;
67776;SDS011;54576;52.020;5.536;2023-06-10T05:27:35;8.93;;;5.15;;
67776;SDS011;54576;52.020;5.536;2023-06-10T05:30:02;12.60;;;4.68;;
67776;SDS011;54576;52.020;5.536;2023-06-10T05:32:28;8.02;;;5.07;;
67776;SDS011;54576;52.020;5.536;2023-06-10T05:34:54;12.02;;;4.65;;
67776;SDS011;54576;52.020;5.536;2023-06-10T05:37:20;11.90;;;4.70;;
67776;SDS011;54576;52.020;5.536;2023-06-10T05:39:46;11.13;;;4.90;;
67776;SDS011;54576;52.020;5.536;2023-06-10T05:42:12;15.88;;;4.82;;
67776;SDS011;54576;52.020;5.536;2023-06-10T05:44:38;15.82;;;5.18;;
67776;SDS011;54576;52.020;5.536;2023-06-10T05:47:04;12.55;;;5.78;;
67776;SDS011;54576;52.020;5.536;2023-06-10T05:49:30;9.80;;;4.80;;
67776;SDS011;54576;52.020;5.536;2023-06-10T05:51:56;15.65;;;5.35;;
67776;SDS011;54576;52.020;5.536;2023-06-10T05:54:24;14.20;;;4.97;;
67776;SDS011;54576;52.020;5.536;2023-06-10T05:56:49;8.02;;;4.88;;
67776;SDS011;54576;52.020;5.536;2023-06-10T05:59:15;14.48;;;5.10;;
67776;SDS011;54576;52.020;5.536;2023-06-10T06:01:41;17.58;;;5.00;;
67776;SDS011;54576;52.020;5.536;2023-06-10T06:04:07;11.18;;;5.28;;
67776;SDS011;54576;52.020;5.536;2023-06-10T06:06:34;8.25;;;4.30;;
67776;SDS011;54576;52.020;5.536;2023-06-10T06:09:01;17.33;;;4.57;;
67776;SDS011;54576;52.020;5.536;2023-06-10T06:11:27;11.65;;;4.80;;
67776;SDS011;54576;52.020;5.536;2023-06-10T06:13:53;8.02;;;4.78;;
67776;SDS011;54576;52.020;5.536;2023-06-10T06:16:19;8.18;;;4.75;;
67776;SDS011;54576;52.020;5.536;2023-06-10T06:18:45;8.00;;;5.45;;
67776;SDS011;54576;52.020;5.536;2023-06-10T06:21:11;8.20;;;4.50;;
67776;SDS011;54576;52.020;5.536;2023-06-10T06:23:37;9.60;;;4.40;;
67776;SDS011;54576;52.020;5.536;2023-06-10T06:26:02;10.75;;;5.32;;
67776;SDS011;54576;52.020;5.536;2023-06-10T06:28:28;7.07;;;4.65;;
67776;SDS011;54576;52.020;5.536;2023-06-10T06:30:54;5.43;;;4.15;;
67776;SDS011;54576;52.020;5.536;2023-06-10T06:33:23;9.75;;;4.70;;
67776;SDS011;54576;52.020;5.536;2023-06-10T06:35:51;14.20;;;4.45;;
67776;SDS011;54576;52.020;5.536;2023-06-10T06:38:16;8.15;;;4.30;;
67776;SDS011;54576;52.020;5.536;2023-06-10T06:40:42;17.33;;;5.03;;
67776;SDS011;54576;52.020;5.536;2023-06-10T06:43:08;11.18;;;4.90;;
67776;SDS011;54576;52.020;5.536;2023-06-10T06:45:33;25.58;;;5.22;;
67776;SDS011;54576;52.020;5.536;2023-06-10T06:47:59;18.92;;;4.95;;
67776;SDS011;54576;52.020;5.536;2023-06-10T06:50:25;10.85;;;4.43;;
67776;SDS011;54576;52.020;5.536;2023-06-10T06:52:50;9.00;;;4.50;;
67776;SDS011;54576;52.020;5.536;2023-06-10T06:55:16;7.55;;;4.70;;
67776;SDS011;54576;52.020;5.536;2023-06-10T06:57:41;9.40;;;4.63;;
67776;SDS011;54576;52.020;5.536;2023-06-10T07:00:07;7.93;;;4.32;;
67776;SDS011;54576;52.020;5.536;2023-06-10T07:02:34;10.23;;;4.47;;
67776;SDS011;54576;52.020;5.536;2023-06-10T07:05:00;9.93;;;4.72;;
67776;SDS011;54576;52.020;5.536;2023-06-10T07:07:26;13.82;;;4.70;;
67776;SDS011;54576;52.020;5.536;2023-06-10T07:09:52;12.65;;;4.45;;
67776;SDS011;54576;52.020;5.536;2023-06-10T07:12:18;11.88;;;4.85;;
67776;SDS011;54576;52.020;5.536;2023-06-10T07:14:43;10.70;;;4.72;;
67776;SDS011;54576;52.020;5.536;2023-06-10T07:17:09;9.60;;;4.57;;
67776;SDS011;54576;52.020;5.536;2023-06-10T07:19:35;8.38;;;4.22;;
67776;SDS011;54576;52.020;5.536;2023-06-10T07:22:00;9.25;;;4.78;;
67776;SDS011;54576;52.020;5.536;2023-06-10T07:24:26;11.13;;;4.03;;
67776;SDS011;54576;52.020;5.536;2023-06-10T07:26:51;21.67;;;4.50;;
67776;SDS011;54576;52.020;5.536;2023-06-10T07:29:17;11.90;;;4.50;;
67776;SDS011;54576;52.020;5.536;2023-06-10T07:31:43;5.25;;;4.32;;
67776;SDS011;54576;52.020;5.536;2023-06-10T07:34:08;14.20;;;4.88;;
67776;SDS011;54576;52.020;5.536;2023-06-10T07:36:34;7.80;;;4.40;;
67776;SDS011;54576;52.020;5.536;2023-06-10T07:39:01;7.85;;;4.20;;
67776;SDS011;54576;52.020;5.536;2023-06-10T07:41:27;10.75;;;4.43;;
67776;SDS011;54576;52.020;5.536;2023-06-10T07:43:56;8.13;;;4.18;;
67776;SDS011;54576;52.020;5.536;2023-06-10T07:46:22;8.77;;;4.32;;
67776;SDS011;54576;52.020;5.536;2023-06-10T07:48:49;15.05;;;4.80;;
67776;SDS011;54576;52.020;5.536;2023-06-10T07:51:16;8.63;;;4.50;;
67776;SDS011;54576;52.020;5.536;2023-06-10T07:53:42;12.63;;;4.30;;
67776;SDS011;54576;52.020;5.536;2023-06-10T07:56:08;13.77;;;4.20;;
67776;SDS011;54576;52.020;5.536;2023-06-10T07:58:34;8.07;;;4.00;;
67776;SDS011;54576;52.020;5.536;2023-06-10T08:00:59;7.95;;;4.15;;
67776;SDS011;54576;52.020;5.536;2023-06-10T08:03:25;7.88;;;4.22;;
67776;SDS011;54576;52.020;5.536;2023-06-10T08:05:50;9.55;;;4.50;;
67776;SDS011;54576;52.020;5.536;2023-06-10T08:08:16;9.43;;;3.90;;
67776;SDS011;54576;52.020;5.536;2023-06-10T08:10:41;7.97;;;4.20;;
67776;SDS011;54576;52.020;5.536;2023-06-10T08:13:10;10.10;;;4.53;;
67776;SDS011;54576;52.020;5.536;2023-06-10T08:15:39;11.98;;;4.35;;
67776;SDS011;54576;52.020;5.536;2023-06-10T08:18:04;7.32;;;4.40;;
67776;SDS011;54576;52.020;5.536;2023-06-10T08:20:30;9.50;;;5.10;;
67776;SDS011;54576;52.020;5.536;2023-06-10T08:22:57;7.25;;;4.47;;
67776;SDS011;54576;52.020;5.536;2023-06-10T08:25:22;11.73;;;5.20;;
67776;SDS011;54576;52.020;5.536;2023-06-10T08:27:48;8.05;;;4.60;;
67776;SDS011;54576;52.020;5.536;2023-06-10T08:30:15;10.35;;;4.78;;
67776;SDS011;54576;52.020;5.536;2023-06-10T08:32:41;5.60;;;3.90;;
67776;SDS011;54576;52.020;5.536;2023-06-10T08:35:07;9.38;;;4.40;;
67776;SDS011;54576;52.020;5.536;2023-06-10T08:37:33;13.55;;;4.28;;
67776;SDS011;54576;52.020;5.536;2023-06-10T08:39:58;13.95;;;4.35;;
67776;SDS011;54576;52.020;5.536;2023-06-10T08:42:24;8.32;;;4.50;;
67776;SDS011;54576;52.020;5.536;2023-06-10T08:44:58;9.10;;;4.07;;
67776;SDS011;54576;52.020;5.536;2023-06-10T08:47:27;6.82;;;3.80;;
67776;SDS011;54576;52.020;5.536;2023-06-10T08:49:56;6.90;;;3.92;;
67776;SDS011;54576;52.020;5.536;2023-06-10T08:52:26;8.80;;;4.63;;
67776;SDS011;54576;52.020;5.536;2023-06-10T08:57:35;4.82;;;4.00;;
67776;SDS011;54576;52.020;5.536;2023-06-10T09:00:02;8.15;;;4.57;;
67776;SDS011;54576;52.020;5.536;2023-06-10T09:02:28;8.63;;;4.20;;
67776;SDS011;54576;52.020;5.536;2023-06-10T09:04:53;8.85;;;3.80;;
67776;SDS011;54576;52.020;5.536;2023-06-10T09:07:22;8.07;;;4.28;;
67776;SDS011;54576;52.020;5.536;2023-06-10T09:09:48;9.48;;;4.55;;
67776;SDS011;54576;52.020;5.536;2023-06-10T09:12:15;7.07;;;3.72;;
67776;SDS011;54576;52.020;5.536;2023-06-10T09:14:41;7.20;;;3.53;;
67776;SDS011;54576;52.020;5.536;2023-06-10T09:17:07;6.80;;;4.28;;
67776;SDS011;54576;52.020;5.536;2023-06-10T09:19:33;11.27;;;4.03;;
67776;SDS011;54576;52.020;5.536;2023-06-10T09:22:01;9.82;;;3.90;;
67776;SDS011;54576;52.020;5.536;2023-06-10T09:24:27;8.52;;;4.03;;
67776;SDS011;54576;52.020;5.536;2023-06-10T09:27:03;11.27;;;4.15;;
67776;SDS011;54576;52.020;5.536;2023-06-10T09:29:31;10.17;;;3.93;;
67776;SDS011;54576;52.020;5.536;2023-06-10T09:31:57;12.10;;;4.25;;
67776;SDS011;54576;52.020;5.536;2023-06-10T09:34:25;10.13;;;4.30;;
67776;SDS011;54576;52.020;5.536;2023-06-10T09:36:51;8.10;;;3.85;;
67776;SDS011;54576;52.020;5.536;2023-06-10T09:39:17;6.30;;;4.10;;
67776;SDS011;54576;52.020;5.536;2023-06-10T09:41:43;7.88;;;4.15;;
67776;SDS011;54576;52.020;5.536;2023-06-10T09:44:13;15.48;;;4.72;;
67776;SDS011;54576;52.020;5.536;2023-06-10T09:46:40;4.78;;;3.65;;
67776;SDS011;54576;52.020;5.536;2023-06-10T09:49:06;10.90;;;4.45;;
67776;SDS011;54576;52.020;5.536;2023-06-10T09:51:32;12.60;;;3.90;;
67776;SDS011;54576;52.020;5.536;2023-06-10T09:53:58;8.07;;;3.75;;
67776;SDS011;54576;52.020;5.536;2023-06-10T09:56:33;10.70;;;4.38;;
67776;SDS011;54576;52.020;5.536;2023-06-10T09:59:00;10.27;;;3.90;;
67776;SDS011;54576;52.020;5.536;2023-06-10T10:01:26;9.82;;;3.75;;
67776;SDS011;54576;52.020;5.536;2023-06-10T10:03:52;9.65;;;3.72;;
67776;SDS011;54576;52.020;5.536;2023-06-10T10:06:18;10.05;;;4.00;;
67776;SDS011;54576;52.020;5.536;2023-06-10T10:08:45;6.43;;;4.22;;
67776;SDS011;54576;52.020;5.536;2023-06-10T10:11:11;6.45;;;4.00;;
67776;SDS011;54576;52.020;5.536;2023-06-10T10:13:39;5.20;;;3.78;;
67776;SDS011;54576;52.020;5.536;2023-06-10T10:16:15;7.55;;;4.20;;
67776;SDS011;54576;52.020;5.536;2023-06-10T10:18:46;10.50;;;3.78;;
67776;SDS011;54576;52.020;5.536;2023-06-10T10:21:24;4.53;;;3.25;;
67776;SDS011;54576;52.020;5.536;2023-06-10T10:26:30;7.50;;;3.92;;
67776;SDS011;54576;52.020;5.536;2023-06-10T10:31:30;6.72;;;3.75;;
67776;SDS011;54576;52.020;5.536;2023-06-10T10:37:29;7.70;;;3.90;;
67776;SDS011;54576;52.020;5.536;2023-06-10T10:39:55;10.77;;;3.60;;
67776;SDS011;54576;52.020;5.536;2023-06-10T10:42:22;5.55;;;3.72;;
67776;SDS011;54576;52.020;5.536;2023-06-10T10:44:48;6.32;;;3.95;;
67776;SDS011;54576;52.020;5.536;2023-06-10T10:47:15;16.25;;;4.38;;
67776;SDS011;54576;52.020;5.536;2023-06-10T10:49:44;9.80;;;3.65;;
67776;SDS011;54576;52.020;5.536;2023-06-10T10:52:14;6.05;;;3.60;;
67776;SDS011;54576;52.020;5.536;2023-06-10T10:54:43;9.52;;;3.83;;
67776;SDS011;54576;52.020;5.536;2023-06-10T10:57:22;7.32;;;4.30;;
67776;SDS011;54576;52.020;5.536;2023-06-10T11:05:06;8.40;;;4.20;;
67776;SDS011;54576;52.020;5.536;2023-06-10T11:07:33;6.05;;;3.78;;
67776;SDS011;54576;52.020;5.536;2023-06-10T11:10:12;9.55;;;3.80;;
67776;SDS011;54576;52.020;5.536;2023-06-10T11:12:40;10.35;;;3.45;;
67776;SDS011;54576;52.020;5.536;2023-06-10T11:15:12;6.55;;;3.65;;
67776;SDS011;54576;52.020;5.536;2023-06-10T11:20:43;9.48;;;3.92;;
67776;SDS011;54576;52.020;5.536;2023-06-10T11:34:00;10.38;;;3.92;;
67776;SDS011;54576;52.020;5.536;2023-06-10T11:36:30;7.28;;;3.63;;
67776;SDS011;54576;52.020;5.536;2023-06-10T11:38:57;3.90;;;3.60;;
67776;SDS011;54576;52.020;5.536;2023-06-10T11:41:24;9.57;;;3.78;;
67776;SDS011;54576;52.020;5.536;2023-06-10T11:43:51;9.33;;;4.10;;
67776;SDS011;54576;52.020;5.536;2023-06-10T11:46:17;10.20;;;3.60;;
67776;SDS011;54576;52.020;5.536;2023-06-10T11:48:53;10.00;;;3.65;;
67776;SDS011;54576;52.020;5.536;2023-06-10T11:51:20;6.47;;;3.80;;
67776;SDS011;54576;52.020;5.536;2023-06-10T11:53:47;6.65;;;3.42;;
67776;SDS011;54576;52.020;5.536;2023-06-10T11:56:13;9.05;;;4.10;;
67776;SDS011;54576;52.020;5.536;2023-06-10T11:58:44;8.68;;;4.30;;
67776;SDS011;54576;52.020;5.536;2023-06-10T12:01:23;9.20;;;3.50;;
67776;SDS011;54576;52.020;5.536;2023-06-10T12:03:58;8.73;;;3.92;;
67776;SDS011;54576;52.020;5.536;2023-06-10T12:06:24;7.97;;;4.05;;
67776;SDS011;54576;52.020;5.536;2023-06-10T12:08:49;13.70;;;4.05;;
67776;SDS011;54576;52.020;5.536;2023-06-10T12:11:15;16.23;;;4.45;;
67776;SDS011;54576;52.020;5.536;2023-06-10T12:13:47;4.45;;;3.97;;
67776;SDS011;54576;52.020;5.536;2023-06-10T12:16:17;5.57;;;3.70;;
67776;SDS011;54576;52.020;5.536;2023-06-10T12:18:44;6.75;;;4.25;;
67776;SDS011;54576;52.020;5.536;2023-06-10T12:21:17;8.35;;;3.58;;
67776;SDS011;54576;52.020;5.536;2023-06-10T12:26:34;7.72;;;3.85;;
67776;SDS011;54576;52.020;5.536;2023-06-10T12:29:17;7.97;;;4.10;;
67776;SDS011;54576;52.020;5.536;2023-06-10T12:31:52;7.82;;;4.00;;
67776;SDS011;54576;52.020;5.536;2023-06-10T12:34:29;4.68;;;3.95;;
67776;SDS011;54576;52.020;5.536;2023-06-10T12:36:56;5.25;;;3.63;;
67776;SDS011;54576;52.020;5.536;2023-06-10T12:39:22;12.07;;;4.22;;
67776;SDS011;54576;52.020;5.536;2023-06-10T12:41:48;7.53;;;3.85;;
67776;SDS011;54576;52.020;5.536;2023-06-10T12:44:14;5.15;;;3.65;;
67776;SDS011;54576;52.020;5.536;2023-06-10T12:46:40;4.00;;;3.60;;
67776;SDS011;54576;52.020;5.536;2023-06-10T12:49:05;6.05;;;4.03;;
67776;SDS011;54576;52.020;5.536;2023-06-10T12:51:31;7.28;;;3.90;;
67776;SDS011;54576;52.020;5.536;2023-06-10T12:53:56;5.25;;;4.40;;
67776;SDS011;54576;52.020;5.536;2023-06-10T12:56:23;7.30;;;4.30;;
67776;SDS011;54576;52.020;5.536;2023-06-10T12:58:48;7.55;;;4.75;;
67776;SDS011;54576;52.020;5.536;2023-06-10T13:01:14;9.05;;;4.30;;
67776;SDS011;54576;52.020;5.536;2023-06-10T13:03:40;7.13;;;4.25;;
67776;SDS011;54576;52.020;5.536;2023-06-10T13:06:06;8.30;;;4.13;;
67776;SDS011;54576;52.020;5.536;2023-06-10T13:08:32;6.35;;;3.97;;
67776;SDS011;54576;52.020;5.536;2023-06-10T13:10:58;7.05;;;3.95;;
67776;SDS011;54576;52.020;5.536;2023-06-10T13:13:24;7.97;;;4.10;;
67776;SDS011;54576;52.020;5.536;2023-06-10T13:15:50;7.88;;;4.30;;
67776;SDS011;54576;52.020;5.536;2023-06-10T13:18:16;8.07;;;4.28;;
67776;SDS011;54576;52.020;5.536;2023-06-10T13:20:45;18.45;;;4.05;;
67776;SDS011;54576;52.020;5.536;2023-06-10T13:23:11;13.60;;;3.88;;
67776;SDS011;54576;52.020;5.536;2023-06-10T13:25:37;4.38;;;3.97;;
67776;SDS011;54576;52.020;5.536;2023-06-10T13:28:03;4.85;;;3.85;;
67776;SDS011;54576;52.020;5.536;2023-06-10T13:30:30;8.53;;;4.63;;
67776;SDS011;54576;52.020;5.536;2023-06-10T13:32:55;10.25;;;3.70;;
67776;SDS011;54576;52.020;5.536;2023-06-10T13:35:21;14.70;;;3.72;;
67776;SDS011;54576;52.020;5.536;2023-06-10T13:37:46;6.82;;;4.13;;
67776;SDS011;54576;52.020;5.536;2023-06-10T13:40:12;12.27;;;3.20;;
67776;SDS011;54576;52.020;5.536;2023-06-10T13:42:38;6.47;;;3.90;;
67776;SDS011;54576;52.020;5.536;2023-06-10T13:45:04;4.40;;;3.92;;
67776;SDS011;54576;52.020;5.536;2023-06-10T13:47:30;7.00;;;3.95;;
67776;SDS011;54576;52.020;5.536;2023-06-10T13:49:56;8.80;;;4.35;;
67776;SDS011;54576;52.020;5.536;2023-06-10T13:52:24;7.75;;;3.80;;
67776;SDS011;54576;52.020;5.536;2023-06-10T13:54:50;7.38;;;3.90;;
67776;SDS011;54576;52.020;5.536;2023-06-10T13:57:16;7.28;;;3.88;;
67776;SDS011;54576;52.020;5.536;2023-06-10T13:59:41;7.38;;;3.70;;
67776;SDS011;54576;52.020;5.536;2023-06-10T14:02:08;13.98;;;4.28;;
67776;SDS011;54576;52.020;5.536;2023-06-10T14:04:34;5.35;;;3.60;;
67776;SDS011;54576;52.020;5.536;2023-06-10T14:07:00;10.55;;;4.10;;
67776;SDS011;54576;52.020;5.536;2023-06-10T14:09:25;4.88;;;3.08;;
67776;SDS011;54576;52.020;5.536;2023-06-10T14:11:51;16.27;;;3.55;;
67776;SDS011;54576;52.020;5.536;2023-06-10T14:14:17;6.53;;;4.03;;
67776;SDS011;54576;52.020;5.536;2023-06-10T14:16:44;5.17;;;4.13;;
67776;SDS011;54576;52.020;5.536;2023-06-10T14:19:09;10.18;;;3.60;;
67776;SDS011;54576;52.020;5.536;2023-06-10T14:21:35;6.15;;;3.80;;
67776;SDS011;54576;52.020;5.536;2023-06-10T14:24:00;7.82;;;3.72;;
67776;SDS011;54576;52.020;5.536;2023-06-10T14:26:29;3.92;;;3.63;;
67776;SDS011;54576;52.020;5.536;2023-06-10T14:28:54;7.80;;;3.58;;
67776;SDS011;54576;52.020;5.536;2023-06-10T14:31:20;5.20;;;3.47;;
67776;SDS011;54576;52.020;5.536;2023-06-10T14:33:46;8.35;;;4.40;;
67776;SDS011;54576;52.020;5.536;2023-06-10T14:36:11;9.23;;;3.88;;
67776;SDS011;54576;52.020;5.536;2023-06-10T14:38:37;3.95;;;3.47;;
67776;SDS011;54576;52.020;5.536;2023-06-10T14:41:03;8.02;;;3.88;;
67776;SDS011;54576;52.020;5.536;2023-06-10T14:43:28;4.75;;;3.65;;
67776;SDS011;54576;52.020;5.536;2023-06-10T14:45:54;7.20;;;4.38;;
67776;SDS011;54576;52.020;5.536;2023-06-10T14:48:21;9.52;;;3.80;;
67776;SDS011;54576;52.020;5.536;2023-06-10T14:50:46;5.57;;;3.55;;
67776;SDS011;54576;52.020;5.536;2023-06-10T14:53:15;6.65;;;3.80;;
67776;SDS011;54576;52.020;5.536;2023-06-10T14:55:42;13.27;;;3.60;;
67776;SDS011;54576;52.020;5.536;2023-06-10T14:58:07;9.43;;;3.97;;
67776;SDS011;54576;52.020;5.536;2023-06-10T15:00:33;8.23;;;3.60;;
67776;SDS011;54576;52.020;5.536;2023-06-10T15:02:59;15.43;;;3.85;;
67776;SDS011;54576;52.020;5.536;2023-06-10T15:05:24;9.57;;;4.00;;
67776;SDS011;54576;52.020;5.536;2023-06-10T15:07:50;7.05;;;4.07;;
67776;SDS011;54576;52.020;5.536;2023-06-10T15:10:15;10.88;;;3.58;;
67776;SDS011;54576;52.020;5.536;2023-06-10T15:12:41;7.25;;;3.83;;
67776;SDS011;54576;52.020;5.536;2023-06-10T15:15:20;13.15;;;4.20;;
67776;SDS011;54576;52.020;5.536;2023-06-10T15:17:45;6.88;;;4.18;;
67776;SDS011;54576;52.020;5.536;2023-06-10T15:20:11;3.60;;;3.30;;
67776;SDS011;54576;52.020;5.536;2023-06-10T15:22:37;5.57;;;3.80;;
67776;SDS011;54576;52.020;5.536;2023-06-10T15:25:02;6.38;;;3.65;;
67776;SDS011;54576;52.020;5.536;2023-06-10T15:27:28;5.63;;;3.78;;